sensor_id;sensor_type;location;lat;lon;timestamp;temperature;humidity
43671;DHT22;29267;50.906;7.248;2022-08-21T00:00:10;18.50;94.70
43671;DHT22;29267;50.906;7.248;2022-08-21T00:02:37;18.50;94.70
43671;DHT22;29267;50.906;7.248;2022-08-21T00:05:03;18.40;94.60
43671;DHT22;29267;50.906;7.248;2022-08-21T00:07:29;18.40;94.70
43671;DHT22;29267;50.906;7.248;2022-08-21T00:09:55;18.40;94.70
43671;DHT22;29267;50.906;7.248;2022-08-21T00:12:22;18.30;94.70
43671;DHT22;29267;50.906;7.248;2022-08-21T00:14:48;18.30;94.70
43671;DHT22;29267;50.906;7.248;2022-08-21T00:17:13;18.20;94.80
43671;DHT22;29267;50.906;7.248;2022-08-21T00:19:39;18.20;94.90
43671;DHT22;29267;50.906;7.248;2022-08-21T00:22:05;18.20;95.00
43671;DHT22;29267;50.906;7.248;2022-08-21T00:24:31;18.20;95.00
43671;DHT22;29267;50.906;7.248;2022-08-21T00:26:57;18.20;95.00
43671;DHT22;29267;50.906;7.248;2022-08-21T00:29:24;18.10;94.90
43671;DHT22;29267;50.906;7.248;2022-08-21T00:31:50;18.10;95.00
43671;DHT22;29267;50.906;7.248;2022-08-21T00:34:15;18.10;95.10
43671;DHT22;29267;50.906;7.248;2022-08-21T00:36:41;18.20;95.20
43671;DHT22;29267;50.906;7.248;2022-08-21T00:39:08;18.20;95.20
43671;DHT22;29267;50.906;7.248;2022-08-21T00:41:36;18.10;95.20
43671;DHT22;29267;50.906;7.248;2022-08-21T00:44:03;18.10;95.10
43671;DHT22;29267;50.906;7.248;2022-08-21T00:46:29;18.10;95.10
43671;DHT22;29267;50.906;7.248;2022-08-21T00:48:56;18.10;95.20
43671;DHT22;29267;50.906;7.248;2022-08-21T00:51:52;18.00;95.30
43671;DHT22;29267;50.906;7.248;2022-08-21T00:54:22;18.00;95.10
43671;DHT22;29267;50.906;7.248;2022-08-21T00:56:54;18.00;95.20
43671;DHT22;29267;50.906;7.248;2022-08-21T00:59:21;18.00;95.30
43671;DHT22;29267;50.906;7.248;2022-08-21T01:01:49;17.90;95.20
43671;DHT22;29267;50.906;7.248;2022-08-21T01:04:15;17.90;95.30
43671;DHT22;29267;50.906;7.248;2022-08-21T01:06:42;17.90;95.30
43671;DHT22;29267;50.906;7.248;2022-08-21T01:09:08;17.90;95.40
43671;DHT22;29267;50.906;7.248;2022-08-21T01:11:34;17.80;95.40
43671;DHT22;29267;50.906;7.248;2022-08-21T01:14:02;17.80;95.40
43671;DHT22;29267;50.906;7.248;2022-08-21T01:16:28;17.80;95.50
43671;DHT22;29267;50.906;7.248;2022-08-21T01:18:54;17.70;95.50
43671;DHT22;29267;50.906;7.248;2022-08-21T01:21:26;17.70;95.60
43671;DHT22;29267;50.906;7.248;2022-08-21T01:23:53;17.70;95.60
43671;DHT22;29267;50.906;7.248;2022-08-21T01:26:23;17.70;95.70
43671;DHT22;29267;50.906;7.248;2022-08-21T01:28:57;17.70;95.70
43671;DHT22;29267;50.906;7.248;2022-08-21T01:31:27;17.70;95.70
43671;DHT22;29267;50.906;7.248;2022-08-21T01:33:55;17.70;95.80
43671;DHT22;29267;50.906;7.248;2022-08-21T01:36:21;17.70;95.70
43671;DHT22;29267;50.906;7.248;2022-08-21T01:38:47;17.60;95.80
43671;DHT22;29267;50.906;7.248;2022-08-21T01:41:14;17.60;95.80
43671;DHT22;29267;50.906;7.248;2022-08-21T01:43:41;17.60;95.70
43671;DHT22;29267;50.906;7.248;2022-08-21T01:46:08;17.60;95.80
43671;DHT22;29267;50.906;7.248;2022-08-21T01:48:35;17.60;95.90
43671;DHT22;29267;50.906;7.248;2022-08-21T01:51:00;17.50;95.90
43671;DHT22;29267;50.906;7.248;2022-08-21T01:53:26;17.50;95.90
43671;DHT22;29267;50.906;7.248;2022-08-21T01:55:52;17.50;96.00
43671;DHT22;29267;50.906;7.248;2022-08-21T01:58:18;17.50;96.00
43671;DHT22;29267;50.906;7.248;2022-08-21T02:00:44;17.50;96.00
43671;DHT22;29267;50.906;7.248;2022-08-21T02:03:10;17.50;96.00
43671;DHT22;29267;50.906;7.248;2022-08-21T02:05:36;17.50;96.00
43671;DHT22;29267;50.906;7.248;2022-08-21T02:08:02;17.40;96.10
43671;DHT22;29267;50.906;7.248;2022-08-21T02:10:31;17.40;96.20
43671;DHT22;29267;50.906;7.248;2022-08-21T02:12:58;17.40;96.20
43671;DHT22;29267;50.906;7.248;2022-08-21T02:15:25;17.40;96.10
43671;DHT22;29267;50.906;7.248;2022-08-21T02:17:55;17.40;96.20
43671;DHT22;29267;50.906;7.248;2022-08-21T02:20:36;17.30;96.30
43671;DHT22;29267;50.906;7.248;2022-08-21T02:23:03;17.30;96.30
43671;DHT22;29267;50.906;7.248;2022-08-21T02:25:30;17.30;96.30
43671;DHT22;29267;50.906;7.248;2022-08-21T02:27:56;17.30;96.40
43671;DHT22;29267;50.906;7.248;2022-08-21T02:30:31;17.20;96.50
43671;DHT22;29267;50.906;7.248;2022-08-21T02:32:57;17.20;96.50
43671;DHT22;29267;50.906;7.248;2022-08-21T02:35:24;17.20;96.60
43671;DHT22;29267;50.906;7.248;2022-08-21T02:37:51;17.20;96.70
43671;DHT22;29267;50.906;7.248;2022-08-21T02:40:20;17.20;96.60
43671;DHT22;29267;50.906;7.248;2022-08-21T02:42:47;17.20;96.70
43671;DHT22;29267;50.906;7.248;2022-08-21T02:45:13;17.20;96.60
43671;DHT22;29267;50.906;7.248;2022-08-21T02:47:40;17.10;96.60
43671;DHT22;29267;50.906;7.248;2022-08-21T02:50:07;17.10;96.60
43671;DHT22;29267;50.906;7.248;2022-08-21T02:52:33;17.10;96.60
43671;DHT22;29267;50.906;7.248;2022-08-21T02:55:00;17.10;96.60
43671;DHT22;29267;50.906;7.248;2022-08-21T02:57:26;17.10;96.70
43671;DHT22;29267;50.906;7.248;2022-08-21T02:59:51;17.00;96.70
43671;DHT22;29267;50.906;7.248;2022-08-21T03:02:17;17.10;96.70
43671;DHT22;29267;50.906;7.248;2022-08-21T03:04:43;17.00;96.80
43671;DHT22;29267;50.906;7.248;2022-08-21T03:07:09;17.00;96.80
43671;DHT22;29267;50.906;7.248;2022-08-21T03:09:35;16.90;96.80
43671;DHT22;29267;50.906;7.248;2022-08-21T03:12:00;16.90;96.80
43671;DHT22;29267;50.906;7.248;2022-08-21T03:14:27;16.90;96.80
43671;DHT22;29267;50.906;7.248;2022-08-21T03:16:52;16.90;96.90
43671;DHT22;29267;50.906;7.248;2022-08-21T03:19:18;16.90;96.80
43671;DHT22;29267;50.906;7.248;2022-08-21T03:21:44;16.90;96.80
43671;DHT22;29267;50.906;7.248;2022-08-21T03:24:10;16.90;96.80
43671;DHT22;29267;50.906;7.248;2022-08-21T03:26:35;16.90;97.10
43671;DHT22;29267;50.906;7.248;2022-08-21T03:29:04;16.80;96.70
43671;DHT22;29267;50.906;7.248;2022-08-21T03:31:32;16.80;96.90
43671;DHT22;29267;50.906;7.248;2022-08-21T03:33:58;16.80;96.80
43671;DHT22;29267;50.906;7.248;2022-08-21T03:36:25;16.80;96.90
43671;DHT22;29267;50.906;7.248;2022-08-21T03:38:51;16.80;97.00
43671;DHT22;29267;50.906;7.248;2022-08-21T03:41:16;16.70;97.10
43671;DHT22;29267;50.906;7.248;2022-08-21T03:43:42;16.70;97.00
43671;DHT22;29267;50.906;7.248;2022-08-21T03:46:08;16.70;97.00
43671;DHT22;29267;50.906;7.248;2022-08-21T03:48:36;16.70;97.00
43671;DHT22;29267;50.906;7.248;2022-08-21T03:51:02;16.70;97.20
43671;DHT22;29267;50.906;7.248;2022-08-21T03:53:28;16.70;97.10
43671;DHT22;29267;50.906;7.248;2022-08-21T03:55:56;16.70;97.10
43671;DHT22;29267;50.906;7.248;2022-08-21T03:58:25;16.70;97.20
43671;DHT22;29267;50.906;7.248;2022-08-21T04:00:54;16.70;97.20
43671;DHT22;29267;50.906;7.248;2022-08-21T04:03:21;16.70;97.10
43671;DHT22;29267;50.906;7.248;2022-08-21T04:05:47;16.60;97.20
43671;DHT22;29267;50.906;7.248;2022-08-21T04:08:14;16.70;97.20
43671;DHT22;29267;50.906;7.248;2022-08-21T04:10:45;16.60;97.20
43671;DHT22;29267;50.906;7.248;2022-08-21T04:13:11;16.60;97.30
43671;DHT22;29267;50.906;7.248;2022-08-21T04:15:38;16.70;97.30
43671;DHT22;29267;50.906;7.248;2022-08-21T04:18:04;16.60;97.30
43671;DHT22;29267;50.906;7.248;2022-08-21T04:20:31;16.60;97.30
43671;DHT22;29267;50.906;7.248;2022-08-21T04:22:56;16.60;97.20
43671;DHT22;29267;50.906;7.248;2022-08-21T04:25:23;16.60;97.30
43671;DHT22;29267;50.906;7.248;2022-08-21T04:27:51;16.60;97.30
43671;DHT22;29267;50.906;7.248;2022-08-21T04:30:17;16.60;97.30
43671;DHT22;29267;50.906;7.248;2022-08-21T04:32:50;16.60;97.50
43671;DHT22;29267;50.906;7.248;2022-08-21T04:35:21;16.50;97.50
43671;DHT22;29267;50.906;7.248;2022-08-21T04:37:47;16.50;97.40
43671;DHT22;29267;50.906;7.248;2022-08-21T04:40:15;16.50;97.50
43671;DHT22;29267;50.906;7.248;2022-08-21T04:42:49;16.50;97.50
43671;DHT22;29267;50.906;7.248;2022-08-21T04:45:32;16.40;97.50
43671;DHT22;29267;50.906;7.248;2022-08-21T04:48:04;16.40;97.50
43671;DHT22;29267;50.906;7.248;2022-08-21T04:50:55;16.40;97.40
43671;DHT22;29267;50.906;7.248;2022-08-21T04:53:25;16.40;97.30
43671;DHT22;29267;50.906;7.248;2022-08-21T04:55:53;16.30;97.40
43671;DHT22;29267;50.906;7.248;2022-08-21T04:58:20;16.40;97.50
43671;DHT22;29267;50.906;7.248;2022-08-21T05:00:48;16.30;97.50
43671;DHT22;29267;50.906;7.248;2022-08-21T05:03:15;16.30;97.50
43671;DHT22;29267;50.906;7.248;2022-08-21T05:05:42;16.30;97.50
43671;DHT22;29267;50.906;7.248;2022-08-21T05:08:12;16.30;97.50
43671;DHT22;29267;50.906;7.248;2022-08-21T05:10:38;16.30;97.50
43671;DHT22;29267;50.906;7.248;2022-08-21T05:13:06;16.20;97.50
43671;DHT22;29267;50.906;7.248;2022-08-21T05:15:32;16.30;97.60
43671;DHT22;29267;50.906;7.248;2022-08-21T05:17:58;16.30;97.70
43671;DHT22;29267;50.906;7.248;2022-08-21T05:20:24;16.30;97.70
43671;DHT22;29267;50.906;7.248;2022-08-21T05:22:49;16.30;97.90
43671;DHT22;29267;50.906;7.248;2022-08-21T05:25:16;16.30;97.90
43671;DHT22;29267;50.906;7.248;2022-08-21T05:27:42;16.40;98.00
43671;DHT22;29267;50.906;7.248;2022-08-21T05:30:09;16.40;97.90
43671;DHT22;29267;50.906;7.248;2022-08-21T05:32:36;16.40;97.90
43671;DHT22;29267;50.906;7.248;2022-08-21T05:35:04;16.40;97.90
43671;DHT22;29267;50.906;7.248;2022-08-21T05:37:30;16.40;97.90
43671;DHT22;29267;50.906;7.248;2022-08-21T05:39:55;16.40;98.00
43671;DHT22;29267;50.906;7.248;2022-08-21T05:42:21;16.40;98.00
43671;DHT22;29267;50.906;7.248;2022-08-21T05:44:47;16.50;98.00
43671;DHT22;29267;50.906;7.248;2022-08-21T05:47:13;16.50;98.00
43671;DHT22;29267;50.906;7.248;2022-08-21T05:49:39;16.60;98.00
43671;DHT22;29267;50.906;7.248;2022-08-21T05:52:05;16.60;97.90
43671;DHT22;29267;50.906;7.248;2022-08-21T05:54:30;16.60;97.90
43671;DHT22;29267;50.906;7.248;2022-08-21T05:56:56;16.70;97.80
43671;DHT22;29267;50.906;7.248;2022-08-21T05:59:23;16.70;97.80
43671;DHT22;29267;50.906;7.248;2022-08-21T06:01:49;16.80;97.70
43671;DHT22;29267;50.906;7.248;2022-08-21T06:04:16;16.80;97.70
43671;DHT22;29267;50.906;7.248;2022-08-21T06:06:42;16.80;97.70
43671;DHT22;29267;50.906;7.248;2022-08-21T06:09:08;16.80;97.60
43671;DHT22;29267;50.906;7.248;2022-08-21T06:11:34;16.90;97.60
43671;DHT22;29267;50.906;7.248;2022-08-21T06:14:00;16.90;97.60
43671;DHT22;29267;50.906;7.248;2022-08-21T06:16:26;17.00;97.70
43671;DHT22;29267;50.906;7.248;2022-08-21T06:18:52;17.00;97.70
43671;DHT22;29267;50.906;7.248;2022-08-21T06:21:21;17.10;97.70
43671;DHT22;29267;50.906;7.248;2022-08-21T06:23:47;17.10;97.70
43671;DHT22;29267;50.906;7.248;2022-08-21T06:26:13;17.10;97.70
43671;DHT22;29267;50.906;7.248;2022-08-21T06:28:40;17.20;97.70
43671;DHT22;29267;50.906;7.248;2022-08-21T06:31:16;17.20;97.60
43671;DHT22;29267;50.906;7.248;2022-08-21T06:33:42;17.20;97.70
43671;DHT22;29267;50.906;7.248;2022-08-21T06:36:08;17.20;97.70
43671;DHT22;29267;50.906;7.248;2022-08-21T06:38:35;17.20;97.90
43671;DHT22;29267;50.906;7.248;2022-08-21T06:41:02;17.00;98.70
43671;DHT22;29267;50.906;7.248;2022-08-21T06:43:27;17.00;99.10
43671;DHT22;29267;50.906;7.248;2022-08-21T06:45:53;16.90;98.90
43671;DHT22;29267;50.906;7.248;2022-08-21T06:48:20;16.90;98.80
43671;DHT22;29267;50.906;7.248;2022-08-21T06:50:47;16.80;98.90
43671;DHT22;29267;50.906;7.248;2022-08-21T06:53:16;16.90;99.00
43671;DHT22;29267;50.906;7.248;2022-08-21T06:55:42;16.80;98.90
43671;DHT22;29267;50.906;7.248;2022-08-21T06:58:08;16.80;99.30
43671;DHT22;29267;50.906;7.248;2022-08-21T07:00:35;16.80;99.30
43671;DHT22;29267;50.906;7.248;2022-08-21T07:03:01;16.90;99.20
43671;DHT22;29267;50.906;7.248;2022-08-21T07:05:28;17.10;98.90
43671;DHT22;29267;50.906;7.248;2022-08-21T07:07:55;17.00;99.30
43671;DHT22;29267;50.906;7.248;2022-08-21T07:10:23;17.30;98.80
43671;DHT22;29267;50.906;7.248;2022-08-21T07:12:50;17.30;99.00
43671;DHT22;29267;50.906;7.248;2022-08-21T07:15:16;17.30;98.80
43671;DHT22;29267;50.906;7.248;2022-08-21T07:17:42;17.30;98.50
43671;DHT22;29267;50.906;7.248;2022-08-21T07:20:08;17.40;98.90
43671;DHT22;29267;50.906;7.248;2022-08-21T07:22:36;17.30;99.30
43671;DHT22;29267;50.906;7.248;2022-08-21T07:25:04;17.40;99.50
43671;DHT22;29267;50.906;7.248;2022-08-21T07:27:30;17.50;99.00
43671;DHT22;29267;50.906;7.248;2022-08-21T07:29:57;17.70;99.00
43671;DHT22;29267;50.906;7.248;2022-08-21T07:32:23;17.70;98.60
43671;DHT22;29267;50.906;7.248;2022-08-21T07:34:49;17.80;98.70
43671;DHT22;29267;50.906;7.248;2022-08-21T07:37:15;18.00;98.40
43671;DHT22;29267;50.906;7.248;2022-08-21T07:39:41;18.10;98.40
43671;DHT22;29267;50.906;7.248;2022-08-21T07:42:07;18.20;97.90
43671;DHT22;29267;50.906;7.248;2022-08-21T07:44:33;18.30;97.80
43671;DHT22;29267;50.906;7.248;2022-08-21T07:47:00;18.40;97.90
43671;DHT22;29267;50.906;7.248;2022-08-21T07:49:27;18.60;97.40
43671;DHT22;29267;50.906;7.248;2022-08-21T07:51:53;18.60;97.40
43671;DHT22;29267;50.906;7.248;2022-08-21T07:54:18;18.70;97.50
43671;DHT22;29267;50.906;7.248;2022-08-21T07:56:44;18.70;96.90
43671;DHT22;29267;50.906;7.248;2022-08-21T07:59:11;18.80;96.60
43671;DHT22;29267;50.906;7.248;2022-08-21T08:01:37;18.90;96.20
43671;DHT22;29267;50.906;7.248;2022-08-21T08:04:03;19.00;96.50
43671;DHT22;29267;50.906;7.248;2022-08-21T08:06:30;19.10;96.20
43671;DHT22;29267;50.906;7.248;2022-08-21T08:08:56;19.10;95.80
43671;DHT22;29267;50.906;7.248;2022-08-21T08:11:22;19.10;95.80
43671;DHT22;29267;50.906;7.248;2022-08-21T08:13:50;19.10;96.20
43671;DHT22;29267;50.906;7.248;2022-08-21T08:16:17;19.20;96.10
43671;DHT22;29267;50.906;7.248;2022-08-21T08:18:43;19.20;95.50
43671;DHT22;29267;50.906;7.248;2022-08-21T08:21:11;19.20;95.70
43671;DHT22;29267;50.906;7.248;2022-08-21T08:23:38;19.30;95.50
43671;DHT22;29267;50.906;7.248;2022-08-21T08:26:04;19.30;95.30
43671;DHT22;29267;50.906;7.248;2022-08-21T08:28:31;19.40;95.20
43671;DHT22;29267;50.906;7.248;2022-08-21T08:30:59;19.50;94.60
43671;DHT22;29267;50.906;7.248;2022-08-21T08:33:26;19.60;94.10
43671;DHT22;29267;50.906;7.248;2022-08-21T08:35:53;19.60;94.20
43671;DHT22;29267;50.906;7.248;2022-08-21T08:38:21;19.70;94.20
43671;DHT22;29267;50.906;7.248;2022-08-21T08:43:26;19.80;93.80
43671;DHT22;29267;50.906;7.248;2022-08-21T08:45:53;19.80;93.70
43671;DHT22;29267;50.906;7.248;2022-08-21T08:48:46;19.90;93.60
43671;DHT22;29267;50.906;7.248;2022-08-21T08:51:25;19.90;93.00
43671;DHT22;29267;50.906;7.248;2022-08-21T08:54:00;19.90;92.20
43671;DHT22;29267;50.906;7.248;2022-08-21T08:56:31;19.90;92.70
43671;DHT22;29267;50.906;7.248;2022-08-21T08:59:02;19.90;92.80
43671;DHT22;29267;50.906;7.248;2022-08-21T09:01:32;20.00;93.00
43671;DHT22;29267;50.906;7.248;2022-08-21T09:03:58;20.10;92.90
43671;DHT22;29267;50.906;7.248;2022-08-21T09:12:01;20.20;92.00
43671;DHT22;29267;50.906;7.248;2022-08-21T09:25:15;20.40;91.80
43671;DHT22;29267;50.906;7.248;2022-08-21T09:27:44;20.40;91.90
43671;DHT22;29267;50.906;7.248;2022-08-21T09:30:10;20.40;91.20
43671;DHT22;29267;50.906;7.248;2022-08-21T09:32:38;20.50;91.40
43671;DHT22;29267;50.906;7.248;2022-08-21T09:40:41;20.60;91.10
43671;DHT22;29267;50.906;7.248;2022-08-21T09:43:21;20.60;91.00
43671;DHT22;29267;50.906;7.248;2022-08-21T09:48:41;20.70;90.40
43671;DHT22;29267;50.906;7.248;2022-08-21T09:51:14;20.70;90.60
43671;DHT22;29267;50.906;7.248;2022-08-21T09:53:49;20.70;90.90
43671;DHT22;29267;50.906;7.248;2022-08-21T09:59:19;20.90;90.50
43671;DHT22;29267;50.906;7.248;2022-08-21T10:01:50;21.00;89.70
43671;DHT22;29267;50.906;7.248;2022-08-21T10:04:27;21.00;88.70
43671;DHT22;29267;50.906;7.248;2022-08-21T10:06:53;21.10;89.20
43671;DHT22;29267;50.906;7.248;2022-08-21T10:09:20;21.10;89.70
43671;DHT22;29267;50.906;7.248;2022-08-21T10:17:58;21.10;89.70
43671;DHT22;29267;50.906;7.248;2022-08-21T10:20:25;21.20;88.80
43671;DHT22;29267;50.906;7.248;2022-08-21T10:23:20;21.30;89.00
43671;DHT22;29267;50.906;7.248;2022-08-21T10:26:02;21.30;87.80
43671;DHT22;29267;50.906;7.248;2022-08-21T10:31:30;21.40;87.90
43671;DHT22;29267;50.906;7.248;2022-08-21T10:34:20;21.60;88.20
43671;DHT22;29267;50.906;7.248;2022-08-21T10:36:59;21.60;87.70
43671;DHT22;29267;50.906;7.248;2022-08-21T10:45:32;21.70;87.10
43671;DHT22;29267;50.906;7.248;2022-08-21T10:48:05;21.80;87.60
43671;DHT22;29267;50.906;7.248;2022-08-21T10:50:48;21.80;86.30
43671;DHT22;29267;50.906;7.248;2022-08-21T10:56:01;21.80;87.00
43671;DHT22;29267;50.906;7.248;2022-08-21T10:58:37;21.70;87.70
43671;DHT22;29267;50.906;7.248;2022-08-21T11:01:36;21.50;88.40
43671;DHT22;29267;50.906;7.248;2022-08-21T11:04:20;21.30;89.00
43671;DHT22;29267;50.906;7.248;2022-08-21T11:06:50;21.20;89.70
43671;DHT22;29267;50.906;7.248;2022-08-21T11:09:22;21.00;90.00
43671;DHT22;29267;50.906;7.248;2022-08-21T11:12:03;20.90;90.30
43671;DHT22;29267;50.906;7.248;2022-08-21T11:14:51;20.80;90.40
43671;DHT22;29267;50.906;7.248;2022-08-21T11:17:31;20.70;90.60
43671;DHT22;29267;50.906;7.248;2022-08-21T11:20:42;20.60;90.70
43671;DHT22;29267;50.906;7.248;2022-08-21T11:23:14;20.60;90.90
43671;DHT22;29267;50.906;7.248;2022-08-21T11:25:47;20.50;91.00
43671;DHT22;29267;50.906;7.248;2022-08-21T11:28:26;20.40;91.10
43671;DHT22;29267;50.906;7.248;2022-08-21T11:31:02;20.40;91.20
43671;DHT22;29267;50.906;7.248;2022-08-21T11:33:49;20.40;91.20
43671;DHT22;29267;50.906;7.248;2022-08-21T11:41:32;20.30;91.40
43671;DHT22;29267;50.906;7.248;2022-08-21T11:44:09;20.30;91.50
43671;DHT22;29267;50.906;7.248;2022-08-21T11:46:57;20.30;91.60
43671;DHT22;29267;50.906;7.248;2022-08-21T11:52:26;20.30;91.60
43671;DHT22;29267;50.906;7.248;2022-08-21T11:54:58;20.20;91.60
43671;DHT22;29267;50.906;7.248;2022-08-21T11:57:35;20.20;91.70
43671;DHT22;29267;50.906;7.248;2022-08-21T12:02:38;20.20;91.70
43671;DHT22;29267;50.906;7.248;2022-08-21T12:05:20;20.20;91.70
43671;DHT22;29267;50.906;7.248;2022-08-21T12:07:47;20.20;91.70
43671;DHT22;29267;50.906;7.248;2022-08-21T12:10:17;20.20;92.00
43671;DHT22;29267;50.906;7.248;2022-08-21T12:12:46;20.20;91.70
43671;DHT22;29267;50.906;7.248;2022-08-21T12:17:57;20.20;91.70
43671;DHT22;29267;50.906;7.248;2022-08-21T12:23:16;20.20;91.70
43671;DHT22;29267;50.906;7.248;2022-08-21T12:28:43;20.20;91.80
43671;DHT22;29267;50.906;7.248;2022-08-21T12:31:24;20.20;91.80
43671;DHT22;29267;50.906;7.248;2022-08-21T12:33:56;20.20;91.70
43671;DHT22;29267;50.906;7.248;2022-08-21T12:36:29;20.20;91.70
43671;DHT22;29267;50.906;7.248;2022-08-21T12:39:05;20.20;91.70
43671;DHT22;29267;50.906;7.248;2022-08-21T12:44:22;20.20;91.60
43671;DHT22;29267;50.906;7.248;2022-08-21T12:46:58;20.20;91.70
43671;DHT22;29267;50.906;7.248;2022-08-21T12:52:23;20.30;91.70
43671;DHT22;29267;50.906;7.248;2022-08-21T12:54:50;20.30;91.60
43671;DHT22;29267;50.906;7.248;2022-08-21T12:57:25;20.30;91.70
43671;DHT22;29267;50.906;7.248;2022-08-21T13:00:00;20.30;91.70
43671;DHT22;29267;50.906;7.248;2022-08-21T13:02:36;20.30;91.60
43671;DHT22;29267;50.906;7.248;2022-08-21T13:05:07;20.30;91.70
43671;DHT22;29267;50.906;7.248;2022-08-21T13:07:36;20.30;91.60
43671;DHT22;29267;50.906;7.248;2022-08-21T13:10:22;20.30;91.60
43671;DHT22;29267;50.906;7.248;2022-08-21T13:12:49;20.30;91.60
43671;DHT22;29267;50.906;7.248;2022-08-21T13:15:30;20.30;91.60
43671;DHT22;29267;50.906;7.248;2022-08-21T13:17:57;20.30;91.60
43671;DHT22;29267;50.906;7.248;2022-08-21T13:20:33;20.40;91.60
43671;DHT22;29267;50.906;7.248;2022-08-21T13:23:02;20.40;91.50
43671;DHT22;29267;50.906;7.248;2022-08-21T13:25:33;20.40;91.60
43671;DHT22;29267;50.906;7.248;2022-08-21T13:30:28;20.40;91.50
43671;DHT22;29267;50.906;7.248;2022-08-21T13:32:59;20.40;91.60
43671;DHT22;29267;50.906;7.248;2022-08-21T13:35:27;20.40;91.50
43671;DHT22;29267;50.906;7.248;2022-08-21T13:37:54;20.40;91.40
43671;DHT22;29267;50.906;7.248;2022-08-21T13:40:26;20.40;91.30
43671;DHT22;29267;50.906;7.248;2022-08-21T13:42:53;20.40;91.40
43671;DHT22;29267;50.906;7.248;2022-08-21T13:45:31;20.40;91.50
43671;DHT22;29267;50.906;7.248;2022-08-21T13:48:00;20.40;91.40
43671;DHT22;29267;50.906;7.248;2022-08-21T13:50:26;20.40;91.40
43671;DHT22;29267;50.906;7.248;2022-08-21T13:53:05;20.40;91.40
43671;DHT22;29267;50.906;7.248;2022-08-21T13:55:42;20.50;91.40
43671;DHT22;29267;50.906;7.248;2022-08-21T13:58:10;20.50;91.40
43671;DHT22;29267;50.906;7.248;2022-08-21T14:00:49;20.50;91.40
43671;DHT22;29267;50.906;7.248;2022-08-21T14:03:32;20.50;91.30
43671;DHT22;29267;50.906;7.248;2022-08-21T14:05:59;20.50;91.40
43671;DHT22;29267;50.906;7.248;2022-08-21T14:08:37;20.50;91.40
43671;DHT22;29267;50.906;7.248;2022-08-21T14:11:11;20.50;91.20
43671;DHT22;29267;50.906;7.248;2022-08-21T14:16:22;20.50;91.40
43671;DHT22;29267;50.906;7.248;2022-08-21T14:21:38;20.60;91.50
43671;DHT22;29267;50.906;7.248;2022-08-21T14:24:13;20.60;91.30
43671;DHT22;29267;50.906;7.248;2022-08-21T14:26:56;21.00;90.60
43671;DHT22;29267;50.906;7.248;2022-08-21T14:29:27;21.50;90.00
43671;DHT22;29267;50.906;7.248;2022-08-21T14:31:56;21.90;89.20
43671;DHT22;29267;50.906;7.248;2022-08-21T14:34:27;22.20;88.70
43671;DHT22;29267;50.906;7.248;2022-08-21T14:36:55;22.60;88.00
43671;DHT22;29267;50.906;7.248;2022-08-21T14:39:21;22.80;87.10
43671;DHT22;29267;50.906;7.248;2022-08-21T14:41:47;23.00;86.60
43671;DHT22;29267;50.906;7.248;2022-08-21T14:44:15;23.20;86.50
43671;DHT22;29267;50.906;7.248;2022-08-21T14:46:42;23.30;86.20
43671;DHT22;29267;50.906;7.248;2022-08-21T14:49:08;23.40;86.10
43671;DHT22;29267;50.906;7.248;2022-08-21T14:51:34;23.50;85.90
43671;DHT22;29267;50.906;7.248;2022-08-21T14:53:59;23.50;85.90
43671;DHT22;29267;50.906;7.248;2022-08-21T14:56:25;23.60;85.90
43671;DHT22;29267;50.906;7.248;2022-08-21T14:58:52;23.60;85.70
43671;DHT22;29267;50.906;7.248;2022-08-21T15:01:20;23.60;85.70
43671;DHT22;29267;50.906;7.248;2022-08-21T15:03:47;23.60;85.60
43671;DHT22;29267;50.906;7.248;2022-08-21T15:06:15;23.70;85.70
43671;DHT22;29267;50.906;7.248;2022-08-21T15:08:41;23.60;85.60
43671;DHT22;29267;50.906;7.248;2022-08-21T15:11:10;23.60;85.50
43671;DHT22;29267;50.906;7.248;2022-08-21T15:13:37;23.60;85.60
43671;DHT22;29267;50.906;7.248;2022-08-21T15:16:03;23.60;85.80
43671;DHT22;29267;50.906;7.248;2022-08-21T15:18:29;23.60;85.50
43671;DHT22;29267;50.906;7.248;2022-08-21T15:20:56;23.60;85.00
43671;DHT22;29267;50.906;7.248;2022-08-21T15:23:22;23.50;85.40
43671;DHT22;29267;50.906;7.248;2022-08-21T15:25:49;23.50;85.70
43671;DHT22;29267;50.906;7.248;2022-08-21T15:28:16;23.40;85.90
43671;DHT22;29267;50.906;7.248;2022-08-21T15:30:44;23.40;86.00
43671;DHT22;29267;50.906;7.248;2022-08-21T15:33:10;23.40;86.20
43671;DHT22;29267;50.906;7.248;2022-08-21T15:35:37;23.40;86.30
43671;DHT22;29267;50.906;7.248;2022-08-21T15:38:03;23.40;86.50
43671;DHT22;29267;50.906;7.248;2022-08-21T15:40:29;23.30;86.40
43671;DHT22;29267;50.906;7.248;2022-08-21T15:42:59;23.30;86.50
43671;DHT22;29267;50.906;7.248;2022-08-21T15:45:26;23.30;86.60
43671;DHT22;29267;50.906;7.248;2022-08-21T15:47:52;23.30;86.50
43671;DHT22;29267;50.906;7.248;2022-08-21T15:50:18;23.20;86.60
43671;DHT22;29267;50.906;7.248;2022-08-21T15:52:44;23.20;86.50
43671;DHT22;29267;50.906;7.248;2022-08-21T15:55:11;23.20;86.70
43671;DHT22;29267;50.906;7.248;2022-08-21T15:57:38;23.10;86.80
43671;DHT22;29267;50.906;7.248;2022-08-21T16:02:42;23.10;87.00
43671;DHT22;29267;50.906;7.248;2022-08-21T16:05:10;23.10;87.00
43671;DHT22;29267;50.906;7.248;2022-08-21T16:07:38;23.10;87.10
43671;DHT22;29267;50.906;7.248;2022-08-21T16:10:05;23.10;87.20
43671;DHT22;29267;50.906;7.248;2022-08-21T16:12:35;23.00;87.00
43671;DHT22;29267;50.906;7.248;2022-08-21T16:15:06;23.00;87.10
43671;DHT22;29267;50.906;7.248;2022-08-21T16:17:34;23.00;87.00
43671;DHT22;29267;50.906;7.248;2022-08-21T16:20:03;23.00;87.20
43671;DHT22;29267;50.906;7.248;2022-08-21T16:22:30;23.00;87.30
43671;DHT22;29267;50.906;7.248;2022-08-21T16:24:56;23.00;87.30
43671;DHT22;29267;50.906;7.248;2022-08-21T16:27:21;22.90;87.20
43671;DHT22;29267;50.906;7.248;2022-08-21T16:29:47;22.90;87.30
43671;DHT22;29267;50.906;7.248;2022-08-21T16:32:15;22.90;87.40
43671;DHT22;29267;50.906;7.248;2022-08-21T16:34:47;22.90;87.40
43671;DHT22;29267;50.906;7.248;2022-08-21T16:37:14;22.90;87.40
43671;DHT22;29267;50.906;7.248;2022-08-21T16:39:40;22.80;87.40
43671;DHT22;29267;50.906;7.248;2022-08-21T16:42:07;22.80;87.30
43671;DHT22;29267;50.906;7.248;2022-08-21T16:44:36;22.80;87.30
43671;DHT22;29267;50.906;7.248;2022-08-21T16:47:02;22.80;87.40
43671;DHT22;29267;50.906;7.248;2022-08-21T16:49:28;22.80;87.40
43671;DHT22;29267;50.906;7.248;2022-08-21T16:51:55;22.80;87.40
43671;DHT22;29267;50.906;7.248;2022-08-21T16:54:21;22.80;87.40
43671;DHT22;29267;50.906;7.248;2022-08-21T16:56:47;22.80;87.40
43671;DHT22;29267;50.906;7.248;2022-08-21T16:59:13;22.80;87.50
43671;DHT22;29267;50.906;7.248;2022-08-21T17:01:39;22.80;87.30
43671;DHT22;29267;50.906;7.248;2022-08-21T17:04:05;22.80;87.20